Aeroporto :
LOGIN :

Iscrizione | Disclaimer

   EN    FR    IT 

 










Sommario :    VFR   VFR Marginale   IFR   IFR Intensivo   IFR Molto Intensivo
Visibilità : 
Base nubi : 
>= 8 km
>= 3000ft
5 / 8 km
1000 / 3000 ft
1500m / 5 km
500 / 1000 ft
800 / 1500m
200 / 500 ft
< 800m
< 200 ft
Simboli :   Temporali  Nebbia  Neve Forte  Precipitazioni Forti  Vento > 20 kt
SIGMETs :   Varie  Temporali  Ghiacco  Turbolenza  Onda orograficha  Ceneri Vulcaniche






- Altitudine del aeroporto : 341 ft


EPMO - Modlin

ULTIMO METAR :
  • 231130Z 25015KT 9999 SCT035CB 08/01 Q1008

METARs OBSOLETI :
  • 231100Z 26020KT 9999 SCT038CB 08/M01 Q1008
  • 231030Z 26020KT 9999 SCT037 08/00 Q1009
  • 231000Z 27022KT 240V300 9999 SCT035 08/M01 Q1009
  • 230930Z 27015KT 240V300 9999 -SHRA FEW024 SCT039CB 07/02 Q1010
  • 230900Z 25018KT 9999 FEW030 SCT047CB 06/02 Q1009

TAF TAF EPMO
Valido dal 23 a 12 ore il 24 a 12 ore UTC


231130Z 2312/2412 26018KT 9999 BKN030
TEMPO 2312/2315 26020G31KT -SHRA SCT020CB
BECMG 2314/2316 21010KT -RA BKN014
BECMG 2316/2318 VRB02KT
TEMPO 2316/2320 4000 RA BR BKN008
TEMPO 2320/2406 2000 SHRASN RASN BKN004 BKN009CB
BECMG 2322/2324 36012KT
PROB40
TEMPO 2322/2401 36015G26KT
TEMPO 2401/2412 29020G33KT -SHRA SCT025TCU



MetMap, La meteo Aeronautica in un colpo d'occhio ! - Copyright ORBIFLY Dicembre 2007 - Disclaimer

ORBIFLY MET'MAP TEAM :

Programmazione e sviluppo : Alexandra Zaïnal
Concezione : Baudouin d'Aumeries
Aiuto per la programmazione : Marc-Olivier Méhu
Supporto tecnico e logistico : Manuel Goepfert
Aiuto per la traduzione : Arnaldo La Scala

Contatto : metmap@orbifly.com




FONTI E CREDITI :

   NOAA